sensor_id;sensor_type;location;lat;lon;timestamp;P1;durP1;ratioP1;P2;durP2;ratioP2
37859;SDS011;23698;52.014;5.190;2024-03-23T00:52:37;47.33;;;15.65;;
37859;SDS011;23698;52.014;5.190;2024-03-23T00:55:22;47.70;;;15.15;;
37859;SDS011;23698;52.014;5.190;2024-03-23T00:58:07;46.08;;;15.63;;
37859;SDS011;23698;52.014;5.190;2024-03-23T01:00:53;42.63;;;14.35;;
37859;SDS011;23698;52.014;5.190;2024-03-23T01:03:38;48.20;;;14.32;;
37859;SDS011;23698;52.014;5.190;2024-03-23T01:06:23;46.83;;;13.80;;
37859;SDS011;23698;52.014;5.190;2024-03-23T01:09:10;46.50;;;13.93;;
37859;SDS011;23698;52.014;5.190;2024-03-23T01:11:55;48.95;;;13.55;;
37859;SDS011;23698;52.014;5.190;2024-03-23T01:14:40;40.70;;;13.93;;
37859;SDS011;23698;52.014;5.190;2024-03-23T01:17:25;50.15;;;13.80;;
37859;SDS011;23698;52.014;5.190;2024-03-23T01:20:11;37.05;;;12.70;;
37859;SDS011;23698;52.014;5.190;2024-03-23T01:22:55;52.63;;;12.00;;
37859;SDS011;23698;52.014;5.190;2024-03-23T01:25:42;40.70;;;12.85;;
37859;SDS011;23698;52.014;5.190;2024-03-23T01:28:27;34.47;;;12.77;;
37859;SDS011;23698;52.014;5.190;2024-03-23T01:31:12;41.15;;;13.32;;
37859;SDS011;23698;52.014;5.190;2024-03-23T01:33:57;40.40;;;13.57;;
37859;SDS011;23698;52.014;5.190;2024-03-23T01:36:42;36.38;;;12.35;;
37859;SDS011;23698;52.014;5.190;2024-03-23T01:39:27;38.08;;;12.60;;
37859;SDS011;23698;52.014;5.190;2024-03-23T01:42:13;37.47;;;12.10;;
37859;SDS011;23698;52.014;5.190;2024-03-23T01:44:58;34.30;;;11.60;;
37859;SDS011;23698;52.014;5.190;2024-03-23T01:47:44;41.80;;;12.77;;
37859;SDS011;23698;52.014;5.190;2024-03-23T01:50:28;33.17;;;10.82;;
37859;SDS011;23698;52.014;5.190;2024-03-23T01:53:17;35.05;;;11.63;;
37859;SDS011;23698;52.014;5.190;2024-03-23T01:56:05;38.13;;;11.75;;
37859;SDS011;23698;52.014;5.190;2024-03-23T01:58:52;40.88;;;10.93;;
37859;SDS011;23698;52.014;5.190;2024-03-23T02:01:37;36.55;;;10.70;;
37859;SDS011;23698;52.014;5.190;2024-03-23T02:04:22;32.55;;;11.73;;
37859;SDS011;23698;52.014;5.190;2024-03-23T02:07:07;28.20;;;10.65;;
37859;SDS011;23698;52.014;5.190;2024-03-23T02:09:53;30.90;;;10.40;;
37859;SDS011;23698;52.014;5.190;2024-03-23T02:12:38;33.30;;;10.77;;
37859;SDS011;23698;52.014;5.190;2024-03-23T02:15:26;38.30;;;10.00;;
37859;SDS011;23698;52.014;5.190;2024-03-23T02:18:10;32.97;;;10.38;;
37859;SDS011;23698;52.014;5.190;2024-03-23T02:20:56;38.33;;;9.85;;
37859;SDS011;23698;52.014;5.190;2024-03-23T02:23:42;27.17;;;9.05;;
37859;SDS011;23698;52.014;5.190;2024-03-23T02:26:28;37.42;;;9.85;;
37859;SDS011;23698;52.014;5.190;2024-03-23T02:29:13;25.90;;;9.63;;
37859;SDS011;23698;52.014;5.190;2024-03-23T02:31:59;28.75;;;9.50;;
37859;SDS011;23698;52.014;5.190;2024-03-23T02:34:43;33.10;;;8.23;;
37859;SDS011;23698;52.014;5.190;2024-03-23T02:37:29;31.80;;;8.90;;
37859;SDS011;23698;52.014;5.190;2024-03-23T02:40:15;30.83;;;8.48;;
37859;SDS011;23698;52.014;5.190;2024-03-23T02:43:01;31.48;;;8.07;;
37859;SDS011;23698;52.014;5.190;2024-03-23T02:45:46;28.90;;;7.60;;
37859;SDS011;23698;52.014;5.190;2024-03-23T02:48:31;30.02;;;7.78;;
37859;SDS011;23698;52.014;5.190;2024-03-23T02:51:16;37.90;;;7.50;;
37859;SDS011;23698;52.014;5.190;2024-03-23T02:54:01;30.38;;;7.18;;
37859;SDS011;23698;52.014;5.190;2024-03-23T02:56:47;23.95;;;6.65;;
37859;SDS011;23698;52.014;5.190;2024-03-23T02:59:33;23.15;;;6.32;;
37859;SDS011;23698;52.014;5.190;2024-03-23T03:02:17;25.05;;;6.03;;
37859;SDS011;23698;52.014;5.190;2024-03-23T03:05:03;32.72;;;7.00;;
37859;SDS011;23698;52.014;5.190;2024-03-23T03:07:49;17.55;;;5.93;;
37859;SDS011;23698;52.014;5.190;2024-03-23T03:10:34;22.23;;;5.45;;
37859;SDS011;23698;52.014;5.190;2024-03-23T03:13:21;21.85;;;6.05;;
37859;SDS011;23698;52.014;5.190;2024-03-23T03:16:08;28.40;;;5.82;;
37859;SDS011;23698;52.014;5.190;2024-03-23T03:18:53;20.92;;;5.80;;
37859;SDS011;23698;52.014;5.190;2024-03-23T03:21:38;23.10;;;6.95;;
37859;SDS011;23698;52.014;5.190;2024-03-23T03:24:22;30.42;;;5.22;;
37859;SDS011;23698;52.014;5.190;2024-03-23T03:27:08;28.05;;;5.90;;
37859;SDS011;23698;52.014;5.190;2024-03-23T03:29:55;21.13;;;5.72;;
37859;SDS011;23698;52.014;5.190;2024-03-23T03:32:40;26.83;;;5.68;;
37859;SDS011;23698;52.014;5.190;2024-03-23T03:35:25;24.23;;;4.53;;
37859;SDS011;23698;52.014;5.190;2024-03-23T03:38:10;24.45;;;4.55;;
37859;SDS011;23698;52.014;5.190;2024-03-23T03:40:55;26.73;;;5.25;;
37859;SDS011;23698;52.014;5.190;2024-03-23T03:43:43;17.05;;;4.05;;
37859;SDS011;23698;52.014;5.190;2024-03-23T03:46:30;17.75;;;4.43;;
37859;SDS011;23698;52.014;5.190;2024-03-23T03:49:14;22.48;;;5.30;;
37859;SDS011;23698;52.014;5.190;2024-03-23T03:52:00;23.98;;;4.65;;
37859;SDS011;23698;52.014;5.190;2024-03-23T03:54:46;27.65;;;4.47;;
37859;SDS011;23698;52.014;5.190;2024-03-23T03:57:30;18.50;;;3.97;;
37859;SDS011;23698;52.014;5.190;2024-03-23T04:00:16;27.27;;;5.10;;
37859;SDS011;23698;52.014;5.190;2024-03-23T04:03:03;20.88;;;4.47;;
37859;SDS011;23698;52.014;5.190;2024-03-23T04:05:51;22.10;;;4.68;;
37859;SDS011;23698;52.014;5.190;2024-03-23T04:08:36;17.83;;;4.07;;
37859;SDS011;23698;52.014;5.190;2024-03-23T04:11:22;21.35;;;4.30;;
37859;SDS011;23698;52.014;5.190;2024-03-23T04:14:06;15.10;;;4.55;;
37859;SDS011;23698;52.014;5.190;2024-03-23T04:16:52;21.00;;;3.85;;
37859;SDS011;23698;52.014;5.190;2024-03-23T04:19:38;17.10;;;4.07;;
37859;SDS011;23698;52.014;5.190;2024-03-23T04:22:23;23.42;;;4.57;;
37859;SDS011;23698;52.014;5.190;2024-03-23T04:25:10;31.83;;;5.97;;
37859;SDS011;23698;52.014;5.190;2024-03-23T04:27:55;18.83;;;4.60;;
37859;SDS011;23698;52.014;5.190;2024-03-23T04:30:40;20.45;;;4.13;;
37859;SDS011;23698;52.014;5.190;2024-03-23T04:33:26;26.35;;;4.40;;
37859;SDS011;23698;52.014;5.190;2024-03-23T04:36:12;20.13;;;5.00;;
37859;SDS011;23698;52.014;5.190;2024-03-23T04:38:58;18.13;;;3.85;;
37859;SDS011;23698;52.014;5.190;2024-03-23T04:41:45;18.77;;;3.85;;
37859;SDS011;23698;52.014;5.190;2024-03-23T04:44:30;13.98;;;3.80;;
37859;SDS011;23698;52.014;5.190;2024-03-23T04:47:16;27.23;;;4.07;;
37859;SDS011;23698;52.014;5.190;2024-03-23T04:50:02;19.15;;;4.40;;
37859;SDS011;23698;52.014;5.190;2024-03-23T04:52:49;19.02;;;3.83;;
37859;SDS011;23698;52.014;5.190;2024-03-23T04:55:35;12.73;;;3.55;;
37859;SDS011;23698;52.014;5.190;2024-03-23T04:58:21;19.35;;;3.53;;
37859;SDS011;23698;52.014;5.190;2024-03-23T05:01:07;23.25;;;3.92;;
37859;SDS011;23698;52.014;5.190;2024-03-23T05:03:55;14.55;;;4.28;;
37859;SDS011;23698;52.014;5.190;2024-03-23T05:06:40;20.35;;;3.13;;
37859;SDS011;23698;52.014;5.190;2024-03-23T05:09:26;17.42;;;3.00;;
37859;SDS011;23698;52.014;5.190;2024-03-23T05:12:14;16.25;;;3.97;;
37859;SDS011;23698;52.014;5.190;2024-03-23T05:14:58;17.77;;;2.42;;
37859;SDS011;23698;52.014;5.190;2024-03-23T05:17:44;20.75;;;2.97;;
37859;SDS011;23698;52.014;5.190;2024-03-23T05:20:29;18.88;;;2.50;;
37859;SDS011;23698;52.014;5.190;2024-03-23T05:23:14;11.88;;;2.42;;
37859;SDS011;23698;52.014;5.190;2024-03-23T05:26:01;16.35;;;2.85;;
37859;SDS011;23698;52.014;5.190;2024-03-23T05:28:46;9.60;;;2.15;;
37859;SDS011;23698;52.014;5.190;2024-03-23T05:31:32;14.18;;;3.55;;
37859;SDS011;23698;52.014;5.190;2024-03-23T05:34:17;15.20;;;2.50;;
37859;SDS011;23698;52.014;5.190;2024-03-23T05:37:02;18.02;;;2.95;;
37859;SDS011;23698;52.014;5.190;2024-03-23T05:39:47;15.00;;;2.90;;
37859;SDS011;23698;52.014;5.190;2024-03-23T05:42:35;17.88;;;3.15;;
37859;SDS011;23698;52.014;5.190;2024-03-23T05:45:20;10.80;;;2.42;;
37859;SDS011;23698;52.014;5.190;2024-03-23T05:48:06;15.02;;;2.53;;
37859;SDS011;23698;52.014;5.190;2024-03-23T05:50:52;12.95;;;2.72;;
37859;SDS011;23698;52.014;5.190;2024-03-23T05:53:37;11.30;;;2.30;;
37859;SDS011;23698;52.014;5.190;2024-03-23T05:56:23;11.68;;;2.80;;
37859;SDS011;23698;52.014;5.190;2024-03-23T05:59:11;14.02;;;2.28;;
37859;SDS011;23698;52.014;5.190;2024-03-23T06:01:57;15.57;;;2.45;;
37859;SDS011;23698;52.014;5.190;2024-03-23T06:04:42;18.17;;;2.88;;
37859;SDS011;23698;52.014;5.190;2024-03-23T06:07:30;17.38;;;3.35;;
37859;SDS011;23698;52.014;5.190;2024-03-23T06:10:16;10.98;;;2.17;;
37859;SDS011;23698;52.014;5.190;2024-03-23T06:13:01;11.70;;;3.47;;
37859;SDS011;23698;52.014;5.190;2024-03-23T06:15:47;16.95;;;3.72;;
37859;SDS011;23698;52.014;5.190;2024-03-23T06:18:33;25.40;;;3.38;;
37859;SDS011;23698;52.014;5.190;2024-03-23T06:21:18;21.88;;;2.47;;
37859;SDS011;23698;52.014;5.190;2024-03-23T06:24:04;20.60;;;3.20;;
37859;SDS011;23698;52.014;5.190;2024-03-23T06:26:49;12.27;;;2.80;;
37859;SDS011;23698;52.014;5.190;2024-03-23T06:29:35;16.08;;;3.10;;
37859;SDS011;23698;52.014;5.190;2024-03-23T06:32:22;21.00;;;3.15;;
37859;SDS011;23698;52.014;5.190;2024-03-23T06:35:07;16.73;;;2.80;;
37859;SDS011;23698;52.014;5.190;2024-03-23T06:37:53;13.05;;;2.92;;
37859;SDS011;23698;52.014;5.190;2024-03-23T06:40:38;14.80;;;3.22;;
37859;SDS011;23698;52.014;5.190;2024-03-23T06:43:23;19.15;;;4.13;;
37859;SDS011;23698;52.014;5.190;2024-03-23T06:46:08;14.93;;;2.92;;
37859;SDS011;23698;52.014;5.190;2024-03-23T06:48:54;15.15;;;2.97;;
37859;SDS011;23698;52.014;5.190;2024-03-23T06:51:40;19.27;;;3.78;;
37859;SDS011;23698;52.014;5.190;2024-03-23T06:54:26;16.05;;;3.10;;
37859;SDS011;23698;52.014;5.190;2024-03-23T06:57:12;10.00;;;2.63;;
37859;SDS011;23698;52.014;5.190;2024-03-23T06:59:56;17.38;;;4.95;;
37859;SDS011;23698;52.014;5.190;2024-03-23T07:02:42;21.17;;;4.70;;
37859;SDS011;23698;52.014;5.190;2024-03-23T07:05:29;10.43;;;3.20;;
37859;SDS011;23698;52.014;5.190;2024-03-23T07:08:15;16.27;;;3.05;;
37859;SDS011;23698;52.014;5.190;2024-03-23T07:11:05;14.02;;;3.20;;
37859;SDS011;23698;52.014;5.190;2024-03-23T07:13:51;13.73;;;3.60;;
37859;SDS011;23698;52.014;5.190;2024-03-23T07:16:36;14.82;;;3.45;;
37859;SDS011;23698;52.014;5.190;2024-03-23T07:19:21;15.75;;;2.97;;
37859;SDS011;23698;52.014;5.190;2024-03-23T07:22:08;12.77;;;3.50;;
37859;SDS011;23698;52.014;5.190;2024-03-23T07:24:54;16.98;;;3.28;;
37859;SDS011;23698;52.014;5.190;2024-03-23T07:27:38;16.30;;;4.05;;
37859;SDS011;23698;52.014;5.190;2024-03-23T07:30:24;18.60;;;3.70;;
37859;SDS011;23698;52.014;5.190;2024-03-23T07:33:09;15.60;;;3.10;;
37859;SDS011;23698;52.014;5.190;2024-03-23T07:35:54;18.02;;;2.72;;
37859;SDS011;23698;52.014;5.190;2024-03-23T07:38:41;19.38;;;3.08;;
37859;SDS011;23698;52.014;5.190;2024-03-23T07:41:31;20.55;;;3.60;;
37859;SDS011;23698;52.014;5.190;2024-03-23T07:44:16;11.55;;;2.50;;
37859;SDS011;23698;52.014;5.190;2024-03-23T07:47:01;12.38;;;2.75;;
37859;SDS011;23698;52.014;5.190;2024-03-23T07:49:46;15.00;;;2.70;;
37859;SDS011;23698;52.014;5.190;2024-03-23T07:52:32;17.15;;;2.45;;
37859;SDS011;23698;52.014;5.190;2024-03-23T07:55:19;9.73;;;2.65;;
37859;SDS011;23698;52.014;5.190;2024-03-23T07:58:05;13.65;;;2.25;;
37859;SDS011;23698;52.014;5.190;2024-03-23T08:00:50;18.42;;;2.28;;
37859;SDS011;23698;52.014;5.190;2024-03-23T08:03:35;12.75;;;2.20;;
37859;SDS011;23698;52.014;5.190;2024-03-23T08:06:22;9.48;;;2.47;;
37859;SDS011;23698;52.014;5.190;2024-03-23T08:09:07;12.27;;;2.50;;
37859;SDS011;23698;52.014;5.190;2024-03-23T08:11:54;11.20;;;2.13;;
37859;SDS011;23698;52.014;5.190;2024-03-23T08:14:39;8.88;;;1.80;;
37859;SDS011;23698;52.014;5.190;2024-03-23T08:17:25;14.30;;;2.33;;
37859;SDS011;23698;52.014;5.190;2024-03-23T08:20:11;11.35;;;2.67;;
37859;SDS011;23698;52.014;5.190;2024-03-23T08:22:56;14.93;;;3.00;;
37859;SDS011;23698;52.014;5.190;2024-03-23T08:25:41;13.35;;;2.72;;
37859;SDS011;23698;52.014;5.190;2024-03-23T08:28:27;9.35;;;2.38;;
37859;SDS011;23698;52.014;5.190;2024-03-23T08:31:13;7.68;;;2.45;;
37859;SDS011;23698;52.014;5.190;2024-03-23T08:33:59;15.02;;;2.13;;
37859;SDS011;23698;52.014;5.190;2024-03-23T08:36:44;12.32;;;2.25;;
37859;SDS011;23698;52.014;5.190;2024-03-23T08:49:17;19.65;;;2.35;;
37859;SDS011;23698;52.014;5.190;2024-03-23T08:52:04;11.15;;;1.95;;
37859;SDS011;23698;52.014;5.190;2024-03-23T08:54:49;12.23;;;1.92;;
37859;SDS011;23698;52.014;5.190;2024-03-23T08:57:34;10.23;;;2.13;;
37859;SDS011;23698;52.014;5.190;2024-03-23T09:00:19;11.48;;;2.88;;
37859;SDS011;23698;52.014;5.190;2024-03-23T09:03:06;11.23;;;2.13;;
37859;SDS011;23698;52.014;5.190;2024-03-23T09:05:53;16.58;;;1.98;;
37859;SDS011;23698;52.014;5.190;2024-03-23T09:08:39;10.68;;;2.10;;
37859;SDS011;23698;52.014;5.190;2024-03-23T09:11:25;11.88;;;2.28;;
37859;SDS011;23698;52.014;5.190;2024-03-23T09:14:11;9.05;;;1.50;;
37859;SDS011;23698;52.014;5.190;2024-03-23T09:16:56;6.82;;;1.63;;
37859;SDS011;23698;52.014;5.190;2024-03-23T09:19:43;13.98;;;2.67;;
37859;SDS011;23698;52.014;5.190;2024-03-23T09:22:29;16.25;;;2.00;;
37859;SDS011;23698;52.014;5.190;2024-03-23T09:25:18;7.78;;;1.73;;
37859;SDS011;23698;52.014;5.190;2024-03-23T09:28:03;13.32;;;2.17;;
37859;SDS011;23698;52.014;5.190;2024-03-23T09:30:50;11.48;;;2.17;;
37859;SDS011;23698;52.014;5.190;2024-03-23T09:33:35;7.95;;;1.88;;
37859;SDS011;23698;52.014;5.190;2024-03-23T09:36:31;9.25;;;2.05;;
37859;SDS011;23698;52.014;5.190;2024-03-23T09:39:18;9.57;;;1.40;;
37859;SDS011;23698;52.014;5.190;2024-03-23T09:42:06;11.55;;;2.30;;
37859;SDS011;23698;52.014;5.190;2024-03-23T09:44:53;10.95;;;2.38;;
37859;SDS011;23698;52.014;5.190;2024-03-23T09:47:52;11.45;;;1.50;;
37859;SDS011;23698;52.014;5.190;2024-03-23T09:50:42;9.98;;;1.95;;
37859;SDS011;23698;52.014;5.190;2024-03-23T09:53:30;5.85;;;1.73;;
37859;SDS011;23698;52.014;5.190;2024-03-23T09:56:18;12.65;;;2.25;;
37859;SDS011;23698;52.014;5.190;2024-03-23T09:59:08;14.23;;;2.83;;
37859;SDS011;23698;52.014;5.190;2024-03-23T10:01:53;11.70;;;1.95;;
37859;SDS011;23698;52.014;5.190;2024-03-23T10:04:39;12.63;;;1.83;;
37859;SDS011;23698;52.014;5.190;2024-03-23T10:07:25;15.02;;;2.60;;
37859;SDS011;23698;52.014;5.190;2024-03-23T10:10:13;13.38;;;2.38;;
37859;SDS011;23698;52.014;5.190;2024-03-23T10:13:06;11.00;;;2.15;;
37859;SDS011;23698;52.014;5.190;2024-03-23T10:15:55;12.68;;;2.15;;
37859;SDS011;23698;52.014;5.190;2024-03-23T10:18:41;13.48;;;2.00;;
37859;SDS011;23698;52.014;5.190;2024-03-23T10:21:27;17.60;;;2.10;;
37859;SDS011;23698;52.014;5.190;2024-03-23T10:24:12;13.60;;;1.52;;
37859;SDS011;23698;52.014;5.190;2024-03-23T10:26:58;10.18;;;2.20;;
37859;SDS011;23698;52.014;5.190;2024-03-23T10:29:46;12.10;;;1.83;;
37859;SDS011;23698;52.014;5.190;2024-03-23T10:32:31;16.13;;;2.38;;
37859;SDS011;23698;52.014;5.190;2024-03-23T10:35:18;8.02;;;1.90;;
37859;SDS011;23698;52.014;5.190;2024-03-23T10:38:07;11.38;;;1.75;;
37859;SDS011;23698;52.014;5.190;2024-03-23T10:40:53;7.82;;;1.70;;
37859;SDS011;23698;52.014;5.190;2024-03-23T10:43:39;13.10;;;2.17;;
37859;SDS011;23698;52.014;5.190;2024-03-23T10:46:26;5.38;;;1.48;;
37859;SDS011;23698;52.014;5.190;2024-03-23T10:49:13;11.60;;;1.42;;
37859;SDS011;23698;52.014;5.190;2024-03-23T10:51:58;8.18;;;1.75;;
37859;SDS011;23698;52.014;5.190;2024-03-23T10:54:44;8.50;;;1.48;;
37859;SDS011;23698;52.014;5.190;2024-03-23T10:57:34;6.80;;;1.67;;
37859;SDS011;23698;52.014;5.190;2024-03-23T11:00:25;6.78;;;1.58;;
37859;SDS011;23698;52.014;5.190;2024-03-23T11:03:30;10.23;;;1.70;;
37859;SDS011;23698;52.014;5.190;2024-03-23T11:06:34;14.98;;;2.15;;
37859;SDS011;23698;52.014;5.190;2024-03-23T11:09:39;15.75;;;2.28;;
37859;SDS011;23698;52.014;5.190;2024-03-23T11:12:25;10.00;;;2.22;;
37859;SDS011;23698;52.014;5.190;2024-03-23T11:15:16;12.48;;;2.60;;
37859;SDS011;23698;52.014;5.190;2024-03-23T11:18:02;7.20;;;1.70;;
37859;SDS011;23698;52.014;5.190;2024-03-23T11:20:50;10.35;;;1.88;;
37859;SDS011;23698;52.014;5.190;2024-03-23T11:23:38;11.18;;;2.00;;
37859;SDS011;23698;52.014;5.190;2024-03-23T11:26:23;13.43;;;2.75;;
37859;SDS011;23698;52.014;5.190;2024-03-23T11:29:09;15.95;;;2.40;;
37859;SDS011;23698;52.014;5.190;2024-03-23T11:31:53;10.85;;;2.85;;
37859;SDS011;23698;52.014;5.190;2024-03-23T11:34:39;14.00;;;1.60;;
37859;SDS011;23698;52.014;5.190;2024-03-23T11:37:25;5.85;;;1.60;;
37859;SDS011;23698;52.014;5.190;2024-03-23T11:40:16;10.63;;;1.75;;
37859;SDS011;23698;52.014;5.190;2024-03-23T11:43:02;9.80;;;1.70;;
37859;SDS011;23698;52.014;5.190;2024-03-23T11:45:49;11.82;;;1.77;;
37859;SDS011;23698;52.014;5.190;2024-03-23T11:48:36;6.95;;;1.30;;
37859;SDS011;23698;52.014;5.190;2024-03-23T11:51:22;9.82;;;1.90;;
37859;SDS011;23698;52.014;5.190;2024-03-23T11:54:09;8.80;;;1.98;;
37859;SDS011;23698;52.014;5.190;2024-03-23T11:56:55;8.73;;;1.65;;
37859;SDS011;23698;52.014;5.190;2024-03-23T11:59:41;10.68;;;1.80;;
37859;SDS011;23698;52.014;5.190;2024-03-23T12:02:29;5.18;;;1.58;;
37859;SDS011;23698;52.014;5.190;2024-03-23T12:05:15;10.65;;;1.63;;
37859;SDS011;23698;52.014;5.190;2024-03-23T12:08:23;7.45;;;1.55;;
37859;SDS011;23698;52.014;5.190;2024-03-23T12:11:11;9.65;;;2.03;;
37859;SDS011;23698;52.014;5.190;2024-03-23T12:13:57;10.10;;;1.70;;
37859;SDS011;23698;52.014;5.190;2024-03-23T12:16:45;5.05;;;1.40;;
37859;SDS011;23698;52.014;5.190;2024-03-23T12:19:31;7.55;;;1.25;;
37859;SDS011;23698;52.014;5.190;2024-03-23T12:25:29;10.80;;;1.90;;
37859;SDS011;23698;52.014;5.190;2024-03-23T12:28:16;11.55;;;1.65;;
37859;SDS011;23698;52.014;5.190;2024-03-23T12:31:01;9.80;;;2.55;;
37859;SDS011;23698;52.014;5.190;2024-03-23T12:33:48;8.65;;;2.22;;
37859;SDS011;23698;52.014;5.190;2024-03-23T12:36:34;7.95;;;1.92;;
37859;SDS011;23698;52.014;5.190;2024-03-23T12:39:20;8.73;;;1.83;;
37859;SDS011;23698;52.014;5.190;2024-03-23T12:42:06;8.48;;;1.98;;
37859;SDS011;23698;52.014;5.190;2024-03-23T12:44:53;11.15;;;1.60;;
37859;SDS011;23698;52.014;5.190;2024-03-23T12:47:39;6.78;;;1.50;;
37859;SDS011;23698;52.014;5.190;2024-03-23T12:50:24;14.55;;;1.75;;
37859;SDS011;23698;52.014;5.190;2024-03-23T12:53:12;7.05;;;1.90;;
37859;SDS011;23698;52.014;5.190;2024-03-23T12:55:56;8.23;;;1.98;;
37859;SDS011;23698;52.014;5.190;2024-03-23T12:58:42;9.70;;;1.95;;
37859;SDS011;23698;52.014;5.190;2024-03-23T13:01:30;12.20;;;2.05;;
37859;SDS011;23698;52.014;5.190;2024-03-23T13:04:16;11.60;;;2.00;;
37859;SDS011;23698;52.014;5.190;2024-03-23T13:07:01;10.88;;;1.52;;
37859;SDS011;23698;52.014;5.190;2024-03-23T13:09:47;8.85;;;1.42;;
37859;SDS011;23698;52.014;5.190;2024-03-23T13:12:35;13.10;;;1.95;;
37859;SDS011;23698;52.014;5.190;2024-03-23T13:15:20;4.80;;;1.15;;
37859;SDS011;23698;52.014;5.190;2024-03-23T13:18:08;5.47;;;1.13;;
37859;SDS011;23698;52.014;5.190;2024-03-23T13:20:55;10.40;;;1.15;;
37859;SDS011;23698;52.014;5.190;2024-03-23T13:23:40;4.95;;;1.02;;
37859;SDS011;23698;52.014;5.190;2024-03-23T13:26:28;6.65;;;1.42;;
37859;SDS011;23698;52.014;5.190;2024-03-23T13:29:12;5.18;;;1.48;;
37859;SDS011;23698;52.014;5.190;2024-03-23T13:31:58;5.38;;;1.30;;
37859;SDS011;23698;52.014;5.190;2024-03-23T13:34:45;9.57;;;1.90;;
37859;SDS011;23698;52.014;5.190;2024-03-23T13:37:34;9.52;;;1.45;;
37859;SDS011;23698;52.014;5.190;2024-03-23T13:40:20;7.53;;;1.10;;
37859;SDS011;23698;52.014;5.190;2024-03-23T13:43:05;5.28;;;1.35;;
37859;SDS011;23698;52.014;5.190;2024-03-23T13:45:51;3.50;;;0.88;;
37859;SDS011;23698;52.014;5.190;2024-03-23T13:48:39;6.38;;;0.70;;
37859;SDS011;23698;52.014;5.190;2024-03-23T13:51:27;4.82;;;0.70;;
37859;SDS011;23698;52.014;5.190;2024-03-23T13:54:13;4.57;;;1.00;;
37859;SDS011;23698;52.014;5.190;2024-03-23T13:56:59;10.88;;;1.95;;
37859;SDS011;23698;52.014;5.190;2024-03-23T13:59:44;13.73;;;1.80;;
37859;SDS011;23698;52.014;5.190;2024-03-23T14:02:29;8.75;;;1.90;;
37859;SDS011;23698;52.014;5.190;2024-03-23T14:05:14;8.05;;;1.77;;
37859;SDS011;23698;52.014;5.190;2024-03-23T14:08:00;10.13;;;1.85;;
37859;SDS011;23698;52.014;5.190;2024-03-23T14:10:46;8.18;;;1.65;;
37859;SDS011;23698;52.014;5.190;2024-03-23T14:13:31;13.52;;;1.70;;
37859;SDS011;23698;52.014;5.190;2024-03-23T14:16:17;6.50;;;1.50;;
37859;SDS011;23698;52.014;5.190;2024-03-23T14:19:02;8.63;;;1.45;;
37859;SDS011;23698;52.014;5.190;2024-03-23T14:21:49;6.78;;;1.65;;
37859;SDS011;23698;52.014;5.190;2024-03-23T14:24:36;8.88;;;1.65;;
37859;SDS011;23698;52.014;5.190;2024-03-23T14:27:24;12.55;;;2.08;;
37859;SDS011;23698;52.014;5.190;2024-03-23T14:30:09;9.05;;;1.52;;
37859;SDS011;23698;52.014;5.190;2024-03-23T14:32:57;7.53;;;1.80;;
37859;SDS011;23698;52.014;5.190;2024-03-23T14:35:43;10.13;;;1.58;;
37859;SDS011;23698;52.014;5.190;2024-03-23T14:38:37;9.40;;;1.75;;
37859;SDS011;23698;52.014;5.190;2024-03-23T14:41:24;10.75;;;2.28;;
37859;SDS011;23698;52.014;5.190;2024-03-23T14:44:10;5.80;;;1.40;;
37859;SDS011;23698;52.014;5.190;2024-03-23T14:46:57;7.40;;;1.40;;
37859;SDS011;23698;52.014;5.190;2024-03-23T14:49:42;7.85;;;0.77;;
37859;SDS011;23698;52.014;5.190;2024-03-23T14:52:31;2.47;;;0.70;;
37859;SDS011;23698;52.014;5.190;2024-03-23T14:55:17;3.58;;;0.82;;
37859;SDS011;23698;52.014;5.190;2024-03-23T14:58:04;4.78;;;1.10;;
37859;SDS011;23698;52.014;5.190;2024-03-23T15:00:51;5.22;;;1.15;;
37859;SDS011;23698;52.014;5.190;2024-03-23T15:03:36;6.50;;;0.88;;
37859;SDS011;23698;52.014;5.190;2024-03-23T15:06:23;2.55;;;0.90;;
37859;SDS011;23698;52.014;5.190;2024-03-23T15:09:08;7.97;;;1.85;;
37859;SDS011;23698;52.014;5.190;2024-03-23T15:11:55;6.93;;;1.45;;
37859;SDS011;23698;52.014;5.190;2024-03-23T15:14:42;6.75;;;1.10;;
37859;SDS011;23698;52.014;5.190;2024-03-23T15:17:28;5.25;;;0.95;;
37859;SDS011;23698;52.014;5.190;2024-03-23T15:20:13;5.50;;;1.02;;
37859;SDS011;23698;52.014;5.190;2024-03-23T15:23:00;9.10;;;1.60;;
37859;SDS011;23698;52.014;5.190;2024-03-23T15:25:45;4.22;;;0.90;;
37859;SDS011;23698;52.014;5.190;2024-03-23T15:28:31;7.65;;;1.30;;
37859;SDS011;23698;52.014;5.190;2024-03-23T15:31:23;10.98;;;1.30;;
37859;SDS011;23698;52.014;5.190;2024-03-23T15:34:09;5.47;;;1.33;;
37859;SDS011;23698;52.014;5.190;2024-03-23T15:36:54;6.72;;;1.27;;
37859;SDS011;23698;52.014;5.190;2024-03-23T15:39:40;5.38;;;1.02;;
37859;SDS011;23698;52.014;5.190;2024-03-23T15:42:25;7.70;;;1.60;;
37859;SDS011;23698;52.014;5.190;2024-03-23T15:45:11;6.20;;;1.77;;
37859;SDS011;23698;52.014;5.190;2024-03-23T15:47:58;8.65;;;1.80;;
37859;SDS011;23698;52.014;5.190;2024-03-23T15:50:51;7.55;;;1.38;;
37859;SDS011;23698;52.014;5.190;2024-03-23T15:53:37;6.05;;;1.50;;
37859;SDS011;23698;52.014;5.190;2024-03-23T15:56:22;7.60;;;1.40;;
37859;SDS011;23698;52.014;5.190;2024-03-23T15:59:07;6.47;;;1.55;;
37859;SDS011;23698;52.014;5.190;2024-03-23T16:01:53;8.13;;;1.40;;
37859;SDS011;23698;52.014;5.190;2024-03-23T16:04:40;8.13;;;1.52;;
37859;SDS011;23698;52.014;5.190;2024-03-23T16:07:27;5.97;;;1.40;;
37859;SDS011;23698;52.014;5.190;2024-03-23T16:10:12;5.90;;;1.52;;
37859;SDS011;23698;52.014;5.190;2024-03-23T16:13:03;5.78;;;1.60;;
37859;SDS011;23698;52.014;5.190;2024-03-23T16:18:39;3.25;;;1.02;;
37859;SDS011;23698;52.014;5.190;2024-03-23T16:21:25;3.13;;;0.52;;
37859;SDS011;23698;52.014;5.190;2024-03-23T16:24:17;4.57;;;1.00;;
37859;SDS011;23698;52.014;5.190;2024-03-23T16:27:02;7.03;;;0.70;;
37859;SDS011;23698;52.014;5.190;2024-03-23T16:29:48;2.97;;;0.98;;
37859;SDS011;23698;52.014;5.190;2024-03-23T16:32:34;8.80;;;1.63;;
37859;SDS011;23698;52.014;5.190;2024-03-23T16:35:21;6.68;;;1.13;;
37859;SDS011;23698;52.014;5.190;2024-03-23T16:38:08;6.82;;;1.08;;
37859;SDS011;23698;52.014;5.190;2024-03-23T16:40:53;5.15;;;0.93;;
37859;SDS011;23698;52.014;5.190;2024-03-23T16:43:40;7.18;;;1.02;;
37859;SDS011;23698;52.014;5.190;2024-03-23T16:46:26;4.65;;;0.88;;
37859;SDS011;23698;52.014;5.190;2024-03-23T16:49:11;7.60;;;1.67;;
37859;SDS011;23698;52.014;5.190;2024-03-23T16:51:58;5.20;;;2.13;;
37859;SDS011;23698;52.014;5.190;2024-03-23T16:54:44;4.00;;;0.75;;
37859;SDS011;23698;52.014;5.190;2024-03-23T16:57:29;3.60;;;1.00;;
37859;SDS011;23698;52.014;5.190;2024-03-23T17:00:14;5.70;;;1.23;;
37859;SDS011;23698;52.014;5.190;2024-03-23T17:03:01;4.07;;;1.02;;
37859;SDS011;23698;52.014;5.190;2024-03-23T17:05:46;2.08;;;1.40;;
37859;SDS011;23698;52.014;5.190;2024-03-23T17:08:32;5.25;;;0.90;;
37859;SDS011;23698;52.014;5.190;2024-03-23T17:11:18;4.97;;;1.35;;
37859;SDS011;23698;52.014;5.190;2024-03-23T17:14:04;4.60;;;1.08;;
37859;SDS011;23698;52.014;5.190;2024-03-23T17:16:49;2.42;;;0.80;;
37859;SDS011;23698;52.014;5.190;2024-03-23T17:19:36;7.78;;;1.33;;
37859;SDS011;23698;52.014;5.190;2024-03-23T17:22:20;6.07;;;1.27;;
37859;SDS011;23698;52.014;5.190;2024-03-23T17:25:06;8.45;;;1.58;;
37859;SDS011;23698;52.014;5.190;2024-03-23T17:27:53;5.57;;;1.45;;
37859;SDS011;23698;52.014;5.190;2024-03-23T17:30:39;9.07;;;1.40;;
37859;SDS011;23698;52.014;5.190;2024-03-23T17:33:25;6.93;;;1.20;;
37859;SDS011;23698;52.014;5.190;2024-03-23T17:36:09;7.53;;;1.15;;
37859;SDS011;23698;52.014;5.190;2024-03-23T17:38:55;5.97;;;1.15;;